sensor_id;sensor_type;location;lat;lon;timestamp;P1;durP1;ratioP1;P2;durP2;ratioP2
8640;SDS011;4358;42.100;25.222;2023-04-03T00:00:38;1.80;;;1.67;;
8640;SDS011;4358;42.100;25.222;2023-04-03T00:03:05;2.77;;;1.90;;
8640;SDS011;4358;42.100;25.222;2023-04-03T00:05:32;4.00;;;1.70;;
8640;SDS011;4358;42.100;25.222;2023-04-03T00:08:00;2.20;;;1.60;;
8640;SDS011;4358;42.100;25.222;2023-04-03T00:10:29;2.03;;;1.50;;
8640;SDS011;4358;42.100;25.222;2023-04-03T00:12:56;2.07;;;1.27;;
8640;SDS011;4358;42.100;25.222;2023-04-03T00:15:23;2.20;;;1.30;;
8640;SDS011;4358;42.100;25.222;2023-04-03T00:17:50;1.87;;;1.40;;
8640;SDS011;4358;42.100;25.222;2023-04-03T00:20:17;3.17;;;1.53;;
8640;SDS011;4358;42.100;25.222;2023-04-03T00:22:44;1.73;;;1.40;;
8640;SDS011;4358;42.100;25.222;2023-04-03T00:25:12;1.80;;;1.50;;
8640;SDS011;4358;42.100;25.222;2023-04-03T00:27:39;1.77;;;1.50;;
8640;SDS011;4358;42.100;25.222;2023-04-03T00:30:07;3.63;;;1.67;;
8640;SDS011;4358;42.100;25.222;2023-04-03T00:32:37;1.80;;;1.43;;
8640;SDS011;4358;42.100;25.222;2023-04-03T00:35:04;2.10;;;1.80;;
8640;SDS011;4358;42.100;25.222;2023-04-03T00:37:31;4.37;;;1.60;;
8640;SDS011;4358;42.100;25.222;2023-04-03T00:39:58;2.53;;;1.67;;
8640;SDS011;4358;42.100;25.222;2023-04-03T00:42:27;1.70;;;1.60;;
8640;SDS011;4358;42.100;25.222;2023-04-03T00:47:52;1.90;;;1.43;;
8640;SDS011;4358;42.100;25.222;2023-04-03T00:50:20;3.97;;;1.50;;
8640;SDS011;4358;42.100;25.222;2023-04-03T00:52:47;1.83;;;1.47;;
8640;SDS011;4358;42.100;25.222;2023-04-03T00:55:14;1.70;;;1.40;;
8640;SDS011;4358;42.100;25.222;2023-04-03T00:57:44;2.90;;;1.40;;
8640;SDS011;4358;42.100;25.222;2023-04-03T01:00:13;3.00;;;1.40;;
8640;SDS011;4358;42.100;25.222;2023-04-03T01:02:42;3.90;;;1.53;;
8640;SDS011;4358;42.100;25.222;2023-04-03T01:05:10;1.97;;;1.67;;
8640;SDS011;4358;42.100;25.222;2023-04-03T01:07:37;2.67;;;1.90;;
8640;SDS011;4358;42.100;25.222;2023-04-03T01:10:06;5.20;;;3.83;;
8640;SDS011;4358;42.100;25.222;2023-04-03T01:12:35;3.10;;;2.80;;
8640;SDS011;4358;42.100;25.222;2023-04-03T01:15:05;3.07;;;2.70;;
8640;SDS011;4358;42.100;25.222;2023-04-03T01:17:35;2.93;;;2.60;;
8640;SDS011;4358;42.100;25.222;2023-04-03T01:23:17;2.10;;;1.80;;
8640;SDS011;4358;42.100;25.222;2023-04-03T01:25:52;2.87;;;2.10;;
8640;SDS011;4358;42.100;25.222;2023-04-03T01:28:22;1.80;;;1.70;;
8640;SDS011;4358;42.100;25.222;2023-04-03T01:30:53;2.33;;;2.00;;
8640;SDS011;4358;42.100;25.222;2023-04-03T01:33:28;2.43;;;1.70;;
8640;SDS011;4358;42.100;25.222;2023-04-03T01:35:55;3.20;;;2.67;;
8640;SDS011;4358;42.100;25.222;2023-04-03T01:38:22;4.73;;;2.87;;
8640;SDS011;4358;42.100;25.222;2023-04-03T01:40:49;8.20;;;4.57;;
8640;SDS011;4358;42.100;25.222;2023-04-03T01:43:16;6.40;;;3.73;;
8640;SDS011;4358;42.100;25.222;2023-04-03T01:45:42;5.47;;;4.20;;
8640;SDS011;4358;42.100;25.222;2023-04-03T01:48:11;7.70;;;5.20;;
8640;SDS011;4358;42.100;25.222;2023-04-03T01:50:40;4.93;;;4.07;;
8640;SDS011;4358;42.100;25.222;2023-04-03T01:53:07;8.10;;;4.37;;
8640;SDS011;4358;42.100;25.222;2023-04-03T01:55:34;5.57;;;4.87;;
8640;SDS011;4358;42.100;25.222;2023-04-03T01:58:01;7.80;;;4.93;;
8640;SDS011;4358;42.100;25.222;2023-04-03T02:00:28;5.87;;;4.17;;
8640;SDS011;4358;42.100;25.222;2023-04-03T02:02:54;4.53;;;2.60;;
8640;SDS011;4358;42.100;25.222;2023-04-03T02:05:21;3.97;;;2.10;;
8640;SDS011;4358;42.100;25.222;2023-04-03T02:07:50;3.20;;;2.30;;
8640;SDS011;4358;42.100;25.222;2023-04-03T02:10:17;3.57;;;1.90;;
8640;SDS011;4358;42.100;25.222;2023-04-03T02:12:43;3.27;;;2.20;;
8640;SDS011;4358;42.100;25.222;2023-04-03T02:15:10;2.70;;;2.03;;
8640;SDS011;4358;42.100;25.222;2023-04-03T02:17:37;3.97;;;2.40;;
8640;SDS011;4358;42.100;25.222;2023-04-03T02:20:05;4.67;;;3.83;;
8640;SDS011;4358;42.100;25.222;2023-04-03T02:22:33;4.33;;;3.90;;
8640;SDS011;4358;42.100;25.222;2023-04-03T02:25:02;5.43;;;3.60;;
8640;SDS011;4358;42.100;25.222;2023-04-03T02:27:29;4.07;;;3.03;;
8640;SDS011;4358;42.100;25.222;2023-04-03T02:29:57;3.57;;;2.50;;
8640;SDS011;4358;42.100;25.222;2023-04-03T02:32:23;2.80;;;2.27;;
8640;SDS011;4358;42.100;25.222;2023-04-03T02:34:50;2.90;;;2.00;;
8640;SDS011;4358;42.100;25.222;2023-04-03T02:37:17;2.10;;;1.90;;
8640;SDS011;4358;42.100;25.222;2023-04-03T02:39:44;2.07;;;1.80;;
8640;SDS011;4358;42.100;25.222;2023-04-03T02:42:12;3.23;;;2.10;;
8640;SDS011;4358;42.100;25.222;2023-04-03T02:44:39;4.30;;;2.57;;
8640;SDS011;4358;42.100;25.222;2023-04-03T02:47:06;4.23;;;2.40;;
8640;SDS011;4358;42.100;25.222;2023-04-03T02:49:33;6.00;;;3.07;;
8640;SDS011;4358;42.100;25.222;2023-04-03T02:52:00;7.20;;;3.93;;
8640;SDS011;4358;42.100;25.222;2023-04-03T02:54:26;4.77;;;4.23;;
8640;SDS011;4358;42.100;25.222;2023-04-03T02:56:55;6.57;;;3.50;;
8640;SDS011;4358;42.100;25.222;2023-04-03T02:59:24;6.97;;;3.93;;
8640;SDS011;4358;42.100;25.222;2023-04-03T03:01:51;3.60;;;3.30;;
8640;SDS011;4358;42.100;25.222;2023-04-03T03:04:18;4.90;;;4.40;;
8640;SDS011;4358;42.100;25.222;2023-04-03T03:06:45;6.30;;;4.57;;
8640;SDS011;4358;42.100;25.222;2023-04-03T03:09:12;10.57;;;3.80;;
8640;SDS011;4358;42.100;25.222;2023-04-03T03:11:40;17.50;;;7.20;;
8640;SDS011;4358;42.100;25.222;2023-04-03T03:14:07;17.33;;;10.87;;
8640;SDS011;4358;42.100;25.222;2023-04-03T03:16:35;19.90;;;10.80;;
8640;SDS011;4358;42.100;25.222;2023-04-03T03:19:02;9.23;;;5.17;;
8640;SDS011;4358;42.100;25.222;2023-04-03T03:21:29;7.87;;;5.47;;
8640;SDS011;4358;42.100;25.222;2023-04-03T03:23:56;12.33;;;8.87;;
8640;SDS011;4358;42.100;25.222;2023-04-03T03:26:22;7.53;;;5.53;;
8640;SDS011;4358;42.100;25.222;2023-04-03T03:28:50;4.73;;;3.07;;
8640;SDS011;4358;42.100;25.222;2023-04-03T03:31:17;2.83;;;2.07;;
8640;SDS011;4358;42.100;25.222;2023-04-03T03:33:45;5.60;;;2.63;;
8640;SDS011;4358;42.100;25.222;2023-04-03T03:36:12;4.10;;;2.80;;
8640;SDS011;4358;42.100;25.222;2023-04-03T03:38:39;3.20;;;2.60;;
8640;SDS011;4358;42.100;25.222;2023-04-03T03:41:06;8.53;;;2.53;;
8640;SDS011;4358;42.100;25.222;2023-04-03T03:43:33;2.40;;;2.20;;
8640;SDS011;4358;42.100;25.222;2023-04-03T03:46:00;2.93;;;2.20;;
8640;SDS011;4358;42.100;25.222;2023-04-03T03:48:26;5.03;;;1.93;;
8640;SDS011;4358;42.100;25.222;2023-04-03T03:50:55;2.60;;;2.17;;
8640;SDS011;4358;42.100;25.222;2023-04-03T03:53:22;2.53;;;2.17;;
8640;SDS011;4358;42.100;25.222;2023-04-03T03:55:48;3.67;;;2.30;;
8640;SDS011;4358;42.100;25.222;2023-04-03T03:58:15;2.97;;;2.53;;
8640;SDS011;4358;42.100;25.222;2023-04-03T04:00:42;3.50;;;2.40;;
8640;SDS011;4358;42.100;25.222;2023-04-03T04:03:09;3.63;;;2.47;;
8640;SDS011;4358;42.100;25.222;2023-04-03T04:05:36;4.63;;;2.73;;
8640;SDS011;4358;42.100;25.222;2023-04-03T04:08:04;4.93;;;2.40;;
8640;SDS011;4358;42.100;25.222;2023-04-03T04:10:31;3.50;;;2.70;;
8640;SDS011;4358;42.100;25.222;2023-04-03T04:12:58;9.03;;;3.87;;
8640;SDS011;4358;42.100;25.222;2023-04-03T04:15:25;8.73;;;4.53;;
8640;SDS011;4358;42.100;25.222;2023-04-03T04:17:52;23.97;;;13.23;;
8640;SDS011;4358;42.100;25.222;2023-04-03T04:20:19;10.80;;;6.73;;
8640;SDS011;4358;42.100;25.222;2023-04-03T04:22:46;7.47;;;4.53;;
8640;SDS011;4358;42.100;25.222;2023-04-03T04:25:14;5.80;;;3.60;;
8640;SDS011;4358;42.100;25.222;2023-04-03T04:27:41;10.03;;;4.00;;
8640;SDS011;4358;42.100;25.222;2023-04-03T04:30:08;9.40;;;4.40;;
8640;SDS011;4358;42.100;25.222;2023-04-03T04:32:36;13.07;;;5.70;;
8640;SDS011;4358;42.100;25.222;2023-04-03T04:35:04;8.63;;;5.23;;
8640;SDS011;4358;42.100;25.222;2023-04-03T04:37:31;7.37;;;6.67;;
8640;SDS011;4358;42.100;25.222;2023-04-03T04:39:58;5.93;;;5.07;;
8640;SDS011;4358;42.100;25.222;2023-04-03T04:42:26;4.47;;;3.03;;
8640;SDS011;4358;42.100;25.222;2023-04-03T04:44:53;2.20;;;2.00;;
8640;SDS011;4358;42.100;25.222;2023-04-03T04:47:20;1.53;;;1.40;;
8640;SDS011;4358;42.100;25.222;2023-04-03T04:49:47;3.53;;;1.80;;
8640;SDS011;4358;42.100;25.222;2023-04-03T04:52:14;1.83;;;1.73;;
8640;SDS011;4358;42.100;25.222;2023-04-03T04:54:41;4.03;;;1.60;;
8640;SDS011;4358;42.100;25.222;2023-04-03T04:57:08;1.70;;;1.50;;
8640;SDS011;4358;42.100;25.222;2023-04-03T04:59:37;4.03;;;1.80;;
8640;SDS011;4358;42.100;25.222;2023-04-03T05:02:04;4.63;;;2.13;;
8640;SDS011;4358;42.100;25.222;2023-04-03T05:04:31;4.00;;;3.07;;
8640;SDS011;4358;42.100;25.222;2023-04-03T05:06:58;5.07;;;3.50;;
8640;SDS011;4358;42.100;25.222;2023-04-03T05:09:25;11.23;;;6.90;;
8640;SDS011;4358;42.100;25.222;2023-04-03T05:11:52;9.90;;;6.03;;
8640;SDS011;4358;42.100;25.222;2023-04-03T05:14:19;27.93;;;10.43;;
8640;SDS011;4358;42.100;25.222;2023-04-03T05:16:48;12.20;;;8.00;;
8640;SDS011;4358;42.100;25.222;2023-04-03T05:19:18;15.43;;;7.77;;
8640;SDS011;4358;42.100;25.222;2023-04-03T05:21:45;14.53;;;8.43;;
8640;SDS011;4358;42.100;25.222;2023-04-03T05:24:12;12.93;;;7.50;;
8640;SDS011;4358;42.100;25.222;2023-04-03T05:26:39;17.83;;;7.80;;
8640;SDS011;4358;42.100;25.222;2023-04-03T05:29:06;19.63;;;7.80;;
8640;SDS011;4358;42.100;25.222;2023-04-03T05:31:33;8.37;;;5.20;;
8640;SDS011;4358;42.100;25.222;2023-04-03T05:34:01;7.07;;;4.83;;
8640;SDS011;4358;42.100;25.222;2023-04-03T05:36:29;11.53;;;5.83;;
8640;SDS011;4358;42.100;25.222;2023-04-03T05:38:55;8.97;;;6.63;;
8640;SDS011;4358;42.100;25.222;2023-04-03T05:41:23;3.60;;;2.80;;
8640;SDS011;4358;42.100;25.222;2023-04-03T05:43:50;7.83;;;3.00;;
8640;SDS011;4358;42.100;25.222;2023-04-03T05:46:17;6.03;;;4.30;;
8640;SDS011;4358;42.100;25.222;2023-04-03T05:48:45;11.63;;;5.63;;
8640;SDS011;4358;42.100;25.222;2023-04-03T05:51:15;11.13;;;5.97;;
8640;SDS011;4358;42.100;25.222;2023-04-03T05:53:43;61.00;;;25.83;;
8640;SDS011;4358;42.100;25.222;2023-04-03T05:56:11;34.30;;;17.33;;
8640;SDS011;4358;42.100;25.222;2023-04-03T05:58:38;19.17;;;10.00;;
8640;SDS011;4358;42.100;25.222;2023-04-03T06:01:05;12.07;;;6.77;;
8640;SDS011;4358;42.100;25.222;2023-04-03T06:03:32;12.10;;;5.67;;
8640;SDS011;4358;42.100;25.222;2023-04-03T06:05:58;6.83;;;4.13;;
8640;SDS011;4358;42.100;25.222;2023-04-03T06:08:27;5.10;;;3.90;;
8640;SDS011;4358;42.100;25.222;2023-04-03T06:10:54;8.10;;;5.03;;
8640;SDS011;4358;42.100;25.222;2023-04-03T06:13:21;6.03;;;4.30;;
8640;SDS011;4358;42.100;25.222;2023-04-03T06:15:48;8.00;;;4.83;;
8640;SDS011;4358;42.100;25.222;2023-04-03T06:18:15;3.93;;;3.53;;
8640;SDS011;4358;42.100;25.222;2023-04-03T06:20:42;2.67;;;2.23;;
8640;SDS011;4358;42.100;25.222;2023-04-03T06:23:09;4.30;;;3.23;;
8640;SDS011;4358;42.100;25.222;2023-04-03T06:25:38;6.33;;;3.20;;
8640;SDS011;4358;42.100;25.222;2023-04-03T06:28:05;4.17;;;2.90;;
8640;SDS011;4358;42.100;25.222;2023-04-03T06:30:34;2.90;;;2.60;;
8640;SDS011;4358;42.100;25.222;2023-04-03T06:33:01;4.37;;;2.00;;
8640;SDS011;4358;42.100;25.222;2023-04-03T06:35:28;3.63;;;2.70;;
8640;SDS011;4358;42.100;25.222;2023-04-03T06:37:56;3.70;;;2.37;;
8640;SDS011;4358;42.100;25.222;2023-04-03T06:40:24;3.10;;;2.47;;
8640;SDS011;4358;42.100;25.222;2023-04-03T06:42:53;2.20;;;2.00;;
8640;SDS011;4358;42.100;25.222;2023-04-03T06:45:20;3.23;;;1.83;;
8640;SDS011;4358;42.100;25.222;2023-04-03T06:47:47;3.13;;;2.27;;
8640;SDS011;4358;42.100;25.222;2023-04-03T06:50:13;3.53;;;1.70;;
8640;SDS011;4358;42.100;25.222;2023-04-03T06:52:41;7.47;;;1.80;;
8640;SDS011;4358;42.100;25.222;2023-04-03T06:55:08;4.77;;;2.83;;
8640;SDS011;4358;42.100;25.222;2023-04-03T06:57:35;2.97;;;2.60;;
8640;SDS011;4358;42.100;25.222;2023-04-03T07:00:04;5.63;;;2.30;;
8640;SDS011;4358;42.100;25.222;2023-04-03T07:02:32;4.30;;;2.03;;
8640;SDS011;4358;42.100;25.222;2023-04-03T07:04:59;2.43;;;2.00;;
8640;SDS011;4358;42.100;25.222;2023-04-03T07:07:26;2.30;;;2.00;;
8640;SDS011;4358;42.100;25.222;2023-04-03T07:09:53;1.77;;;1.67;;
8640;SDS011;4358;42.100;25.222;2023-04-03T07:12:20;2.90;;;2.03;;
8640;SDS011;4358;42.100;25.222;2023-04-03T07:14:47;1.73;;;1.60;;
8640;SDS011;4358;42.100;25.222;2023-04-03T07:17:15;1.77;;;1.67;;
8640;SDS011;4358;42.100;25.222;2023-04-03T07:19:42;3.80;;;1.50;;
8640;SDS011;4358;42.100;25.222;2023-04-03T07:22:09;1.60;;;1.50;;
8640;SDS011;4358;42.100;25.222;2023-04-03T07:24:37;3.50;;;2.43;;
8640;SDS011;4358;42.100;25.222;2023-04-03T07:27:04;2.40;;;2.17;;
8640;SDS011;4358;42.100;25.222;2023-04-03T07:29:33;1.83;;;1.73;;
8640;SDS011;4358;42.100;25.222;2023-04-03T07:32:00;1.70;;;1.60;;
8640;SDS011;4358;42.100;25.222;2023-04-03T07:34:28;2.63;;;2.10;;
8640;SDS011;4358;42.100;25.222;2023-04-03T07:36:55;2.03;;;1.60;;
8640;SDS011;4358;42.100;25.222;2023-04-03T07:39:23;2.00;;;1.53;;
8640;SDS011;4358;42.100;25.222;2023-04-03T07:41:50;2.67;;;2.00;;
8640;SDS011;4358;42.100;25.222;2023-04-03T07:44:17;2.63;;;1.90;;
8640;SDS011;4358;42.100;25.222;2023-04-03T07:46:44;2.00;;;1.70;;
8640;SDS011;4358;42.100;25.222;2023-04-03T07:49:11;1.60;;;1.50;;
8640;SDS011;4358;42.100;25.222;2023-04-03T07:51:40;2.07;;;1.53;;
8640;SDS011;4358;42.100;25.222;2023-04-03T07:54:07;4.10;;;2.10;;
8640;SDS011;4358;42.100;25.222;2023-04-03T07:56:34;2.90;;;2.00;;
8640;SDS011;4358;42.100;25.222;2023-04-03T07:59:01;2.27;;;1.80;;
8640;SDS011;4358;42.100;25.222;2023-04-03T08:01:28;2.93;;;2.00;;
8640;SDS011;4358;42.100;25.222;2023-04-03T08:03:57;3.27;;;2.30;;
8640;SDS011;4358;42.100;25.222;2023-04-03T08:06:24;2.97;;;2.37;;
8640;SDS011;4358;42.100;25.222;2023-04-03T08:08:52;6.07;;;5.07;;
8640;SDS011;4358;42.100;25.222;2023-04-03T08:11:19;2.90;;;2.03;;
8640;SDS011;4358;42.100;25.222;2023-04-03T08:13:46;2.37;;;1.83;;
8640;SDS011;4358;42.100;25.222;2023-04-03T08:16:15;2.20;;;1.70;;
8640;SDS011;4358;42.100;25.222;2023-04-03T08:18:44;1.90;;;1.70;;
8640;SDS011;4358;42.100;25.222;2023-04-03T08:21:11;3.53;;;1.40;;
8640;SDS011;4358;42.100;25.222;2023-04-03T08:23:38;2.50;;;1.87;;
8640;SDS011;4358;42.100;25.222;2023-04-03T08:26:09;1.73;;;1.50;;
8640;SDS011;4358;42.100;25.222;2023-04-03T08:28:38;5.60;;;1.87;;
8640;SDS011;4358;42.100;25.222;2023-04-03T08:31:06;3.00;;;2.00;;
8640;SDS011;4358;42.100;25.222;2023-04-03T08:33:38;2.43;;;1.83;;
8640;SDS011;4358;42.100;25.222;2023-04-03T08:36:05;2.20;;;1.90;;
8640;SDS011;4358;42.100;25.222;2023-04-03T08:38:34;3.40;;;2.50;;
8640;SDS011;4358;42.100;25.222;2023-04-03T08:41:04;2.20;;;1.63;;
8640;SDS011;4358;42.100;25.222;2023-04-03T08:43:39;2.53;;;2.10;;
8640;SDS011;4358;42.100;25.222;2023-04-03T08:46:16;4.47;;;2.03;;
8640;SDS011;4358;42.100;25.222;2023-04-03T08:48:45;3.70;;;2.90;;
8640;SDS011;4358;42.100;25.222;2023-04-03T08:51:14;2.23;;;2.00;;
8640;SDS011;4358;42.100;25.222;2023-04-03T08:53:43;4.20;;;2.43;;
8640;SDS011;4358;42.100;25.222;2023-04-03T08:56:16;3.47;;;2.90;;
8640;SDS011;4358;42.100;25.222;2023-04-03T08:58:47;2.23;;;1.77;;
8640;SDS011;4358;42.100;25.222;2023-04-03T09:01:19;2.57;;;1.87;;
8640;SDS011;4358;42.100;25.222;2023-04-03T09:03:49;2.37;;;1.97;;
8640;SDS011;4358;42.100;25.222;2023-04-03T09:06:17;8.23;;;1.93;;
8640;SDS011;4358;42.100;25.222;2023-04-03T09:08:49;2.93;;;2.07;;
8640;SDS011;4358;42.100;25.222;2023-04-03T09:11:26;3.40;;;2.03;;
8640;SDS011;4358;42.100;25.222;2023-04-03T09:14:02;3.20;;;2.63;;
8640;SDS011;4358;42.100;25.222;2023-04-03T09:16:42;4.47;;;3.20;;
8640;SDS011;4358;42.100;25.222;2023-04-03T09:19:17;3.13;;;2.83;;
8640;SDS011;4358;42.100;25.222;2023-04-03T09:21:51;7.10;;;4.33;;
8640;SDS011;4358;42.100;25.222;2023-04-03T09:24:19;2.73;;;2.53;;
8640;SDS011;4358;42.100;25.222;2023-04-03T09:26:51;4.40;;;3.17;;
8640;SDS011;4358;42.100;25.222;2023-04-03T09:29:23;6.83;;;3.90;;
8640;SDS011;4358;42.100;25.222;2023-04-03T09:31:52;5.97;;;3.00;;
8640;SDS011;4358;42.100;25.222;2023-04-03T09:34:23;9.10;;;3.33;;
8640;SDS011;4358;42.100;25.222;2023-04-03T09:36:52;6.27;;;4.23;;
8640;SDS011;4358;42.100;25.222;2023-04-03T09:39:21;3.83;;;2.73;;
8640;SDS011;4358;42.100;25.222;2023-04-03T09:41:57;4.37;;;3.43;;
8640;SDS011;4358;42.100;25.222;2023-04-03T09:44:28;4.63;;;2.80;;
8640;SDS011;4358;42.100;25.222;2023-04-03T09:46:57;4.27;;;3.40;;
8640;SDS011;4358;42.100;25.222;2023-04-03T09:49:25;4.33;;;2.77;;
8640;SDS011;4358;42.100;25.222;2023-04-03T09:51:52;4.50;;;2.80;;
8640;SDS011;4358;42.100;25.222;2023-04-03T09:54:30;6.40;;;3.93;;
8640;SDS011;4358;42.100;25.222;2023-04-03T09:57:00;3.80;;;2.60;;
8640;SDS011;4358;42.100;25.222;2023-04-03T09:59:32;7.30;;;3.77;;
8640;SDS011;4358;42.100;25.222;2023-04-03T10:02:00;8.93;;;3.20;;
8640;SDS011;4358;42.100;25.222;2023-04-03T10:04:37;3.53;;;2.70;;
8640;SDS011;4358;42.100;25.222;2023-04-03T10:07:25;5.90;;;3.13;;
8640;SDS011;4358;42.100;25.222;2023-04-03T10:09:54;2.77;;;2.10;;
8640;SDS011;4358;42.100;25.222;2023-04-03T10:12:22;4.37;;;2.67;;
8640;SDS011;4358;42.100;25.222;2023-04-03T10:14:56;4.40;;;2.63;;
8640;SDS011;4358;42.100;25.222;2023-04-03T10:17:26;3.10;;;2.37;;
8640;SDS011;4358;42.100;25.222;2023-04-03T10:20:05;4.50;;;2.97;;
8640;SDS011;4358;42.100;25.222;2023-04-03T10:22:39;4.40;;;3.07;;
8640;SDS011;4358;42.100;25.222;2023-04-03T10:25:15;31.67;;;13.47;;
8640;SDS011;4358;42.100;25.222;2023-04-03T10:27:50;10.40;;;6.63;;
8640;SDS011;4358;42.100;25.222;2023-04-03T10:30:28;4.80;;;3.67;;
8640;SDS011;4358;42.100;25.222;2023-04-03T10:33:05;5.00;;;2.73;;
8640;SDS011;4358;42.100;25.222;2023-04-03T10:35:47;7.67;;;3.80;;
8640;SDS011;4358;42.100;25.222;2023-04-03T10:38:24;10.63;;;3.40;;
8640;SDS011;4358;42.100;25.222;2023-04-03T10:41:00;4.47;;;3.53;;
8640;SDS011;4358;42.100;25.222;2023-04-03T10:43:33;9.23;;;4.80;;
8640;SDS011;4358;42.100;25.222;2023-04-03T10:46:10;4.87;;;3.77;;
8640;SDS011;4358;42.100;25.222;2023-04-03T10:48:58;5.40;;;3.67;;
8640;SDS011;4358;42.100;25.222;2023-04-03T10:51:34;7.30;;;3.60;;
8640;SDS011;4358;42.100;25.222;2023-04-03T10:54:08;3.70;;;3.00;;
8640;SDS011;4358;42.100;25.222;2023-04-03T10:56:39;5.57;;;2.83;;
8640;SDS011;4358;42.100;25.222;2023-04-03T10:59:17;5.20;;;3.47;;
8640;SDS011;4358;42.100;25.222;2023-04-03T11:01:51;6.33;;;3.07;;
8640;SDS011;4358;42.100;25.222;2023-04-03T11:04:21;5.23;;;3.30;;
8640;SDS011;4358;42.100;25.222;2023-04-03T11:06:53;4.23;;;3.20;;
8640;SDS011;4358;42.100;25.222;2023-04-03T11:09:25;5.50;;;3.13;;
8640;SDS011;4358;42.100;25.222;2023-04-03T11:11:55;3.17;;;2.60;;
8640;SDS011;4358;42.100;25.222;2023-04-03T11:14:27;3.63;;;2.40;;
8640;SDS011;4358;42.100;25.222;2023-04-03T11:17:04;4.93;;;3.30;;
8640;SDS011;4358;42.100;25.222;2023-04-03T11:19:39;5.57;;;3.23;;
8640;SDS011;4358;42.100;25.222;2023-04-03T11:22:13;6.53;;;3.37;;
8640;SDS011;4358;42.100;25.222;2023-04-03T11:24:51;3.73;;;2.63;;
8640;SDS011;4358;42.100;25.222;2023-04-03T11:27:24;3.27;;;2.90;;
8640;SDS011;4358;42.100;25.222;2023-04-03T11:29:56;3.63;;;2.90;;
8640;SDS011;4358;42.100;25.222;2023-04-03T11:32:32;3.67;;;3.07;;
8640;SDS011;4358;42.100;25.222;2023-04-03T11:35:10;5.17;;;3.30;;
8640;SDS011;4358;42.100;25.222;2023-04-03T11:37:39;4.43;;;3.10;;
8640;SDS011;4358;42.100;25.222;2023-04-03T11:40:17;4.47;;;2.67;;
8640;SDS011;4358;42.100;25.222;2023-04-03T11:42:47;5.67;;;3.43;;
8640;SDS011;4358;42.100;25.222;2023-04-03T11:45:17;5.27;;;3.27;;
8640;SDS011;4358;42.100;25.222;2023-04-03T11:47:58;6.00;;;3.70;;
8640;SDS011;4358;42.100;25.222;2023-04-03T11:50:39;7.23;;;4.37;;
8640;SDS011;4358;42.100;25.222;2023-04-03T11:53:30;6.83;;;4.73;;
8640;SDS011;4358;42.100;25.222;2023-04-03T11:56:00;6.27;;;4.70;;
8640;SDS011;4358;42.100;25.222;2023-04-03T11:58:30;8.77;;;5.37;;
8640;SDS011;4358;42.100;25.222;2023-04-03T12:01:05;8.10;;;4.20;;
8640;SDS011;4358;42.100;25.222;2023-04-03T12:12:56;5.97;;;3.67;;
8640;SDS011;4358;42.100;25.222;2023-04-03T12:15:41;6.27;;;4.17;;
8640;SDS011;4358;42.100;25.222;2023-04-03T12:21:05;5.03;;;2.87;;
8640;SDS011;4358;42.100;25.222;2023-04-03T12:23:34;6.33;;;3.90;;
8640;SDS011;4358;42.100;25.222;2023-04-03T12:26:20;5.70;;;3.90;;
8640;SDS011;4358;42.100;25.222;2023-04-03T12:28:50;7.20;;;3.80;;
8640;SDS011;4358;42.100;25.222;2023-04-03T12:31:19;5.23;;;4.13;;
8640;SDS011;4358;42.100;25.222;2023-04-03T12:34:01;6.60;;;3.83;;
8640;SDS011;4358;42.100;25.222;2023-04-03T12:36:42;4.37;;;3.97;;
8640;SDS011;4358;42.100;25.222;2023-04-03T12:42:22;6.03;;;4.63;;
8640;SDS011;4358;42.100;25.222;2023-04-03T12:45:00;8.47;;;5.50;;
8640;SDS011;4358;42.100;25.222;2023-04-03T12:47:37;6.37;;;4.60;;
8640;SDS011;4358;42.100;25.222;2023-04-03T12:50:16;12.83;;;5.77;;
8640;SDS011;4358;42.100;25.222;2023-04-03T12:52:50;7.17;;;5.10;;
8640;SDS011;4358;42.100;25.222;2023-04-03T12:55:20;9.17;;;6.27;;
8640;SDS011;4358;42.100;25.222;2023-04-03T12:57:49;10.00;;;6.63;;
8640;SDS011;4358;42.100;25.222;2023-04-03T13:00:27;9.03;;;7.03;;
8640;SDS011;4358;42.100;25.222;2023-04-03T13:02:57;10.53;;;6.97;;
8640;SDS011;4358;42.100;25.222;2023-04-03T13:05:25;9.10;;;6.50;;
8640;SDS011;4358;42.100;25.222;2023-04-03T13:07:54;7.90;;;5.80;;
8640;SDS011;4358;42.100;25.222;2023-04-03T13:10:25;6.77;;;4.80;;
8640;SDS011;4358;42.100;25.222;2023-04-03T13:12:54;7.50;;;5.30;;
8640;SDS011;4358;42.100;25.222;2023-04-03T13:15:24;6.53;;;5.10;;
8640;SDS011;4358;42.100;25.222;2023-04-03T13:17:53;8.13;;;5.77;;
8640;SDS011;4358;42.100;25.222;2023-04-03T13:20:28;7.13;;;5.20;;
8640;SDS011;4358;42.100;25.222;2023-04-03T13:22:58;8.00;;;5.27;;
8640;SDS011;4358;42.100;25.222;2023-04-03T13:25:29;7.03;;;4.90;;
8640;SDS011;4358;42.100;25.222;2023-04-03T13:28:01;8.37;;;5.30;;
8640;SDS011;4358;42.100;25.222;2023-04-03T13:30:30;7.47;;;5.47;;
8640;SDS011;4358;42.100;25.222;2023-04-03T13:33:00;10.80;;;6.37;;
8640;SDS011;4358;42.100;25.222;2023-04-03T13:35:31;8.87;;;6.57;;
8640;SDS011;4358;42.100;25.222;2023-04-03T13:38:05;11.23;;;6.97;;
8640;SDS011;4358;42.100;25.222;2023-04-03T13:40:48;7.90;;;6.60;;
8640;SDS011;4358;42.100;25.222;2023-04-03T13:43:20;11.23;;;7.90;;
8640;SDS011;4358;42.100;25.222;2023-04-03T13:45:53;12.40;;;7.37;;
8640;SDS011;4358;42.100;25.222;2023-04-03T13:48:26;11.97;;;7.27;;
8640;SDS011;4358;42.100;25.222;2023-04-03T13:51:01;15.73;;;9.37;;
8640;SDS011;4358;42.100;25.222;2023-04-03T13:53:31;17.33;;;10.23;;
8640;SDS011;4358;42.100;25.222;2023-04-03T13:56:05;16.97;;;11.03;;
8640;SDS011;4358;42.100;25.222;2023-04-03T13:58:36;16.90;;;10.07;;
8640;SDS011;4358;42.100;25.222;2023-04-03T14:01:08;16.83;;;10.30;;
8640;SDS011;4358;42.100;25.222;2023-04-03T14:03:40;14.80;;;9.17;;
8640;SDS011;4358;42.100;25.222;2023-04-03T14:06:10;13.50;;;8.90;;
8640;SDS011;4358;42.100;25.222;2023-04-03T14:08:39;11.70;;;8.03;;
8640;SDS011;4358;42.100;25.222;2023-04-03T14:11:08;10.67;;;7.80;;
8640;SDS011;4358;42.100;25.222;2023-04-03T14:13:40;12.97;;;6.30;;
8640;SDS011;4358;42.100;25.222;2023-04-03T14:16:07;8.27;;;5.77;;
8640;SDS011;4358;42.100;25.222;2023-04-03T14:18:38;7.53;;;5.57;;
8640;SDS011;4358;42.100;25.222;2023-04-03T14:21:05;8.73;;;6.30;;
8640;SDS011;4358;42.100;25.222;2023-04-03T14:23:32;7.77;;;5.73;;
8640;SDS011;4358;42.100;25.222;2023-04-03T14:26:00;9.57;;;5.73;;
8640;SDS011;4358;42.100;25.222;2023-04-03T14:28:27;8.37;;;5.93;;
8640;SDS011;4358;42.100;25.222;2023-04-03T14:30:55;10.37;;;6.33;;
8640;SDS011;4358;42.100;25.222;2023-04-03T14:33:22;10.87;;;6.33;;
8640;SDS011;4358;42.100;25.222;2023-04-03T14:35:51;8.53;;;6.23;;
8640;SDS011;4358;42.100;25.222;2023-04-03T14:38:20;8.40;;;5.50;;
8640;SDS011;4358;42.100;25.222;2023-04-03T14:40:50;8.37;;;5.90;;
8640;SDS011;4358;42.100;25.222;2023-04-03T14:43:18;7.47;;;5.80;;
8640;SDS011;4358;42.100;25.222;2023-04-03T14:45:46;7.40;;;5.57;;
8640;SDS011;4358;42.100;25.222;2023-04-03T14:48:16;10.50;;;6.13;;
8640;SDS011;4358;42.100;25.222;2023-04-03T14:50:46;7.70;;;5.30;;
8640;SDS011;4358;42.100;25.222;2023-04-03T14:53:14;8.33;;;5.37;;
8640;SDS011;4358;42.100;25.222;2023-04-03T14:55:43;6.47;;;4.80;;
8640;SDS011;4358;42.100;25.222;2023-04-03T14:58:12;5.57;;;4.67;;
8640;SDS011;4358;42.100;25.222;2023-04-03T15:00:41;7.40;;;5.07;;
8640;SDS011;4358;42.100;25.222;2023-04-03T15:03:11;7.70;;;6.17;;
8640;SDS011;4358;42.100;25.222;2023-04-03T15:05:41;8.83;;;5.60;;
8640;SDS011;4358;42.100;25.222;2023-04-03T15:08:10;8.47;;;6.00;;
8640;SDS011;4358;42.100;25.222;2023-04-03T15:10:44;7.77;;;5.50;;
8640;SDS011;4358;42.100;25.222;2023-04-03T15:13:11;7.77;;;5.03;;
8640;SDS011;4358;42.100;25.222;2023-04-03T15:15:39;5.47;;;4.67;;
8640;SDS011;4358;42.100;25.222;2023-04-03T15:18:05;5.27;;;3.93;;
8640;SDS011;4358;42.100;25.222;2023-04-03T15:20:33;7.20;;;4.33;;
8640;SDS011;4358;42.100;25.222;2023-04-03T15:23:01;6.97;;;4.37;;
8640;SDS011;4358;42.100;25.222;2023-04-03T15:25:29;5.60;;;3.77;;
8640;SDS011;4358;42.100;25.222;2023-04-03T15:27:57;6.80;;;4.70;;
8640;SDS011;4358;42.100;25.222;2023-04-03T15:30:25;7.77;;;5.60;;
8640;SDS011;4358;42.100;25.222;2023-04-03T15:32:52;6.07;;;5.23;;
8640;SDS011;4358;42.100;25.222;2023-04-03T15:35:19;9.40;;;5.03;;